Time;durP1;ratioP1;P1;durP2;ratioP2;P2;SDS_P1;SDS_P2;PMS_P1;PMS_P2;Temp;Humidity;BMP_temperature;BMP_pressure;BME280_temperature;BME280_humidity;BME280_pressure;Samples;Min_cycle;Max_cycle;Signal;HPM_P1;HPM_P2
2022/10/29 00:02:22;;;;;;;24.52;6.40;;;;;;;14.49;100.00;101735.09;5037514;28;20445;-48
2022/10/29 00:04:47;;;;;;;20.70;5.55;;;;;;;14.40;100.00;101731.81;5036800;28;20294;-46
2022/10/29 00:07:13;;;;;;;27.42;5.72;;;;;;;14.41;100.00;101730.91;5036225;28;20239;-46
2022/10/29 00:09:38;;;;;;;20.63;5.07;;;;;;;14.38;100.00;101739.09;5034419;28;20564;-46
2022/10/29 00:12:04;;;;;;;29.38;4.82;;;;;;;14.34;100.00;101745.56;5037634;28;20191;-46
2022/10/29 00:14:29;;;;;;;21.17;5.95;;;;;;;14.37;100.00;101748.13;5036113;28;20341;-49
2022/10/29 00:16:55;;;;;;;21.35;5.15;;;;;;;14.37;100.00;101740.06;5028683;28;20763;-46
2022/10/29 00:19:21;;;;;;;21.38;5.05;;;;;;;14.30;100.00;101735.84;5030216;28;20233;-47
2022/10/29 00:21:49;;;;;;;24.95;5.50;;;;;;;14.34;100.00;101742.88;5037633;28;20187;-45
2022/10/29 00:24:15;;;;;;;27.80;5.88;;;;;;;14.31;100.00;101744.81;5037312;28;20201;-46
2022/10/29 00:26:41;;;;;;;24.30;5.28;;;;;;;14.30;100.00;101757.41;5034749;28;20674;-46
2022/10/29 00:29:06;;;;;;;21.77;5.45;;;;;;;14.33;100.00;101762.69;5035268;28;20223;-45
2022/10/29 00:31:32;;;;;;;20.90;5.00;;;;;;;14.27;100.00;101770.13;5035731;28;20183;-47
2022/10/29 00:33:57;;;;;;;23.27;5.22;;;;;;;14.17;100.00;101765.09;5020400;28;20527;-46
2022/10/29 00:36:25;;;;;;;24.52;5.20;;;;;;;14.15;100.00;101739.16;5022178;28;20261;-46
2022/10/29 00:38:51;;;;;;;19.92;4.90;;;;;;;14.17;100.00;101746.22;5034900;28;20168;-47
2022/10/29 00:41:25;;;;;;;19.88;4.68;;;;;;;14.11;100.00;101761.75;5036826;28;20206;-47
2022/10/29 00:44:31;;;;;;;21.80;4.55;;;;;;;14.05;100.00;101760.16;5038281;28;20195;-46
2022/10/29 00:47:25;;;;;;;22.10;5.35;;;;;;;13.96;100.00;101755.13;5039357;28;20248;-48
2022/10/29 00:50:02;;;;;;;22.30;4.70;;;;;;;13.74;100.00;101768.50;5030077;28;20224;-47
2022/10/29 00:52:31;;;;;;;22.33;4.82;;;;;;;13.71;100.00;101766.81;5023121;28;20223;-46
2022/10/29 00:54:59;;;;;;;24.08;4.75;;;;;;;13.69;100.00;101778.56;5040235;28;20196;-47
2022/10/29 00:57:33;;;;;;;28.02;5.00;;;;;;;13.62;100.00;101777.03;5041572;28;20506;-46
2022/10/29 00:59:58;;;;;;;27.15;5.10;;;;;;;13.57;100.00;101767.28;5038606;28;20192;-47
2022/10/29 01:02:24;;;;;;;21.75;5.40;;;;;;;13.49;100.00;101774.78;5039629;28;20259;-46
2022/10/29 01:04:52;;;;;;;24.67;4.90;;;;;;;13.46;100.00;101780.25;5043176;28;20617;-46
2022/10/29 01:07:19;;;;;;;25.38;4.85;;;;;;;13.36;100.00;101787.78;5038787;28;20309;-48
2022/10/29 01:09:44;;;;;;;23.23;4.70;;;;;;;13.41;100.00;101787.63;5018635;28;20309;-47
2022/10/29 01:12:34;;;;;;;24.65;4.90;;;;;;;13.32;100.00;101790.63;5039096;28;20167;-48
2022/10/29 01:15:58;;;;;;;21.00;4.53;;;;;;;13.42;100.00;101789.38;5039214;28;20200;-47
2022/10/29 01:18:55;;;;;;;22.40;4.43;;;;;;;13.37;100.00;101794.03;5023901;28;20187;-46
2022/10/29 01:21:41;;;;;;;20.83;4.82;;;;;;;13.26;100.00;101796.19;5016465;28;20203;-47
2022/10/29 01:24:30;;;;;;;25.27;4.93;;;;;;;13.16;100.00;101791.13;5038130;28;20183;-47
2022/10/29 01:27:08;;;;;;;24.10;5.32;;;;;;;13.15;100.00;101793.84;5036906;28;20291;-47
2022/10/29 01:30:03;;;;;;;21.05;4.53;;;;;;;12.99;100.00;101797.06;5040490;28;20581;-47
2022/10/29 01:32:37;;;;;;;21.35;4.55;;;;;;;13.01;100.00;101791.63;5025257;28;20253;-47
2022/10/29 01:35:11;;;;;;;27.08;4.78;;;;;;;12.88;100.00;101801.00;5021878;28;20203;-47
2022/10/29 01:37:43;;;;;;;22.65;3.95;;;;;;;12.84;100.00;101800.25;5040036;28;20199;-48
2022/10/29 01:40:23;;;;;;;27.90;4.45;;;;;;;12.81;100.00;101803.00;5036893;28;20680;-47
2022/10/29 01:43:11;;;;;;;23.00;4.35;;;;;;;12.90;100.00;101808.13;5037514;28;20549;-49
2022/10/29 01:45:44;;;;;;;28.83;4.60;;;;;;;12.76;100.00;101811.22;5025394;28;20310;-48
2022/10/29 01:48:16;;;;;;;23.23;4.45;;;;;;;12.84;100.00;101812.81;5038992;28;20536;-48
2022/10/29 01:50:47;;;;;;;25.77;5.63;;;;;;;12.77;100.00;101802.25;5039666;28;20259;-45
2022/10/29 01:53:12;;;;;;;26.42;4.78;;;;;;;12.56;100.00;101814.53;5036718;28;20680;-47
2022/10/29 01:55:38;;;;;;;31.67;5.25;;;;;;;12.55;100.00;101817.28;5037517;28;20204;-48
2022/10/29 01:58:05;;;;;;;23.70;4.50;;;;;;;12.62;100.00;101835.00;5039887;28;20183;-48
2022/10/29 02:00:53;;;;;;;22.67;4.80;;;;;;;12.60;100.00;101828.78;5026484;28;20184;-47
2022/10/29 02:03:49;;;;;;;24.85;4.47;;;;;;;12.45;100.00;101830.13;5037626;28;20176;-46
2022/10/29 02:06:33;;;;;;;25.98;5.20;;;;;;;12.40;100.00;101834.78;5036558;28;20556;-46
2022/10/29 02:09:22;;;;;;;27.58;4.70;;;;;;;12.36;100.00;101825.03;5037612;28;20179;-45
2022/10/29 02:12:02;;;;;;;24.65;4.47;;;;;;;12.30;100.00;101827.91;5038514;28;20192;-47
2022/10/29 02:14:46;;;;;;;24.52;4.28;;;;;;;12.38;100.00;101825.00;5038368;28;20207;-47
2022/10/29 02:17:12;;;;;;;25.10;4.20;;;;;;;12.42;100.00;101830.22;5035932;28;20180;-45
2022/10/29 02:19:37;;;;;;;26.13;4.63;;;;;;;12.31;100.00;101829.63;5037702;28;20198;-46
2022/10/29 02:22:03;;;;;;;20.13;4.25;;;;;;;12.26;100.00;101832.47;5037796;28;20184;-47
2022/10/29 02:24:29;;;;;;;18.30;4.03;;;;;;;12.28;100.00;101841.38;5036407;28;20258;-48
2022/10/29 02:26:54;;;;;;;18.45;4.18;;;;;;;12.29;100.00;101828.84;5038003;28;20238;-47
2022/10/29 02:29:20;;;;;;;16.63;3.90;;;;;;;12.21;100.00;101837.09;5036343;28;20699;-47
2022/10/29 02:31:45;;;;;;;29.50;4.47;;;;;;;12.16;100.00;101839.06;5039028;28;20190;-47
2022/10/29 02:34:10;;;;;;;21.42;4.93;;;;;;;12.13;100.00;101845.41;5030051;28;20222;-48
2022/10/29 02:36:36;;;;;;;18.90;4.10;;;;;;;12.13;100.00;101837.34;5038370;28;20406;-47
2022/10/29 02:39:02;;;;;;;20.92;3.92;;;;;;;12.00;100.00;101841.28;5018027;28;20242;-47
2022/10/29 02:41:27;;;;;;;20.92;4.30;;;;;;;11.88;100.00;101834.44;5038690;28;20306;-48
2022/10/29 02:43:53;;;;;;;32.42;5.43;;;;;;;11.81;100.00;101835.50;5038512;28;20200;-47
2022/10/29 02:46:20;;;;;;;19.45;4.00;;;;;;;11.92;100.00;101827.19;5037932;28;20269;-48
2022/10/29 02:48:46;;;;;;;20.70;4.28;;;;;;;11.97;100.00;101833.31;5035608;28;20176;-47
2022/10/29 02:51:12;;;;;;;27.15;4.70;;;;;;;11.79;100.00;101831.13;5044923;28;20194;-46
2022/10/29 02:53:38;;;;;;;25.65;4.93;;;;;;;11.79;100.00;101837.34;5037274;28;20560;-45
2022/10/29 02:56:05;;;;;;;18.10;4.32;;;;;;;11.83;100.00;101824.72;5023336;28;20202;-48
2022/10/29 02:58:30;;;;;;;15.65;4.30;;;;;;;11.82;100.00;101823.84;5037891;28;20187;-47
2022/10/29 03:00:56;;;;;;;22.80;4.60;;;;;;;11.75;100.00;101808.81;5037098;28;20191;-47
2022/10/29 03:03:21;;;;;;;21.35;4.72;;;;;;;11.69;100.00;101804.50;5007337;28;20217;-46
2022/10/29 03:05:47;;;;;;;17.70;4.20;;;;;;;11.79;100.00;101810.50;5035487;28;20208;-46
2022/10/29 03:08:13;;;;;;;21.55;4.15;;;;;;;11.74;100.00;101825.84;5036027;28;20192;-48
2022/10/29 03:10:38;;;;;;;19.35;3.47;;;;;;;11.73;100.00;101833.03;5036571;28;20271;-48
2022/10/29 03:13:03;;;;;;;19.42;4.32;;;;;;;11.61;100.00;101833.38;5036541;28;20294;-44
2022/10/29 03:15:29;;;;;;;21.25;4.15;;;;;;;11.59;100.00;101837.00;5036955;28;20208;-46
2022/10/29 03:17:54;;;;;;;25.20;4.30;;;;;;;11.55;100.00;101831.72;5036930;28;20184;-47
2022/10/29 03:20:20;;;;;;;26.38;4.68;;;;;;;11.52;100.00;101834.50;5034730;28;20198;-44
2022/10/29 03:22:45;;;;;;;19.52;3.63;;;;;;;11.59;100.00;101835.22;5037098;28;20191;-45
2022/10/29 03:25:11;;;;;;;20.92;3.78;;;;;;;11.60;100.00;101828.91;5039191;28;20254;-45
2022/10/29 03:27:41;;;;;;;23.95;4.40;;;;;;;11.57;100.00;101825.41;5036938;28;20176;-48
2022/10/29 03:30:08;;;;;;;25.27;4.85;;;;;;;11.51;100.00;101838.06;5022705;28;20223;-49
2022/10/29 03:32:38;;;;;;;18.02;3.72;;;;;;;11.52;100.00;101842.53;5034055;28;20204;-46
2022/10/29 03:35:03;;;;;;;22.75;4.78;;;;;;;11.45;100.00;101848.09;5039358;28;20303;-47
2022/10/29 03:37:29;;;;;;;27.23;4.57;;;;;;;11.45;100.00;101842.72;5038616;28;20643;-46
2022/10/29 03:39:54;;;;;;;16.40;4.07;;;;;;;11.38;100.00;101835.75;5037853;28;20206;-46
2022/10/29 03:42:20;;;;;;;18.00;4.13;;;;;;;11.39;100.00;101853.59;5036973;28;20551;-46
2022/10/29 03:44:45;;;;;;;23.42;4.22;;;;;;;11.43;100.00;101853.50;5035741;28;20594;-47
2022/10/29 03:47:10;;;;;;;18.73;4.10;;;;;;;11.46;100.00;101848.06;5036196;28;20233;-46
2022/10/29 03:49:36;;;;;;;20.25;3.50;;;;;;;11.34;100.00;101849.22;5035755;28;20707;-46
2022/10/29 03:52:01;;;;;;;21.48;4.30;;;;;;;11.28;100.00;101843.13;5033782;28;20184;-46
2022/10/29 03:54:27;;;;;;;24.85;3.67;;;;;;;11.20;100.00;101853.19;5035550;28;20207;-45
2022/10/29 03:56:52;;;;;;;19.58;4.10;;;;;;;11.20;100.00;101850.53;5035883;28;20186;-46
2022/10/29 03:59:17;;;;;;;19.27;3.67;;;;;;;11.20;100.00;101858.56;5036324;28;20276;-46
2022/10/29 04:01:43;;;;;;;21.30;4.07;;;;;;;11.19;100.00;101860.34;5035926;28;20562;-47
2022/10/29 04:04:09;;;;;;;19.75;4.30;;;;;;;11.19;100.00;101857.66;5034123;28;20187;-46
2022/10/29 04:06:34;;;;;;;24.25;4.95;;;;;;;11.08;100.00;101849.88;5038284;28;20195;-45
2022/10/29 04:09:00;;;;;;;18.85;3.42;;;;;;;11.16;100.00;101864.91;5036522;28;20187;-46
2022/10/29 04:11:25;;;;;;;13.70;3.50;;;;;;;11.13;100.00;101852.47;5036070;28;20191;-48
2022/10/29 04:13:52;;;;;;;20.60;4.18;;;;;;;11.13;100.00;101863.19;5036660;28;20252;-46
2022/10/29 04:16:17;;;;;;;15.00;3.72;;;;;;;11.10;100.00;101868.63;5035862;28;20692;-47
2022/10/29 04:18:45;;;;;;;21.38;3.75;;;;;;;11.09;100.00;101866.88;5040033;28;20191;-47
2022/10/29 04:21:11;;;;;;;17.17;4.00;;;;;;;11.05;100.00;101879.47;5042598;28;20211;-48
2022/10/29 04:23:36;;;;;;;19.55;4.15;;;;;;;11.04;100.00;101896.47;5039603;28;20191;-47
2022/10/29 04:26:02;;;;;;;15.95;3.78;;;;;;;11.01;100.00;101896.53;5041017;28;20219;-48
2022/10/29 04:28:27;;;;;;;22.48;3.65;;;;;;;10.92;100.00;101911.03;5040682;28;20703;-47
2022/10/29 04:30:53;;;;;;;15.52;3.75;;;;;;;10.92;100.00;101910.16;5040343;28;20187;-46
2022/10/29 04:33:19;;;;;;;16.27;3.83;;;;;;;10.99;100.00;101922.50;5039294;28;20207;-46
2022/10/29 04:35:50;;;;;;;14.32;3.53;;;;;;;11.04;100.00;101896.47;5040252;28;20670;-46
2022/10/29 04:38:16;;;;;;;16.45;3.58;;;;;;;11.02;100.00;101886.69;5041212;28;20202;-46
2022/10/29 04:40:41;;;;;;;30.08;4.80;;;;;;;10.95;100.00;101871.66;5040518;28;20612;-46
2022/10/29 04:43:07;;;;;;;16.05;4.13;;;;;;;10.97;100.00;101843.00;5023750;28;20183;-46
2022/10/29 04:45:32;;;;;;;26.10;3.78;;;;;;;10.87;100.00;101826.28;5043411;28;20563;-48
2022/10/29 04:47:59;;;;;;;15.48;3.25;;;;;;;10.91;100.00;101838.66;5046113;28;20191;-49
2022/10/29 04:50:25;;;;;;;25.58;3.97;;;;;;;10.96;100.00;101849.31;5042967;28;20268;-48
2022/10/29 04:52:51;;;;;;;21.02;3.67;;;;;;;10.96;100.00;101879.69;5038326;28;20243;-45
2022/10/29 04:55:16;;;;;;;18.33;3.70;;;;;;;10.86;100.00;101870.06;5040655;28;20214;-46
2022/10/29 04:57:41;;;;;;;18.52;3.65;;;;;;;10.92;100.00;101875.28;5041566;28;20188;-45
2022/10/29 05:00:08;;;;;;;17.83;3.97;;;;;;;10.89;100.00;101891.47;5039696;28;20180;-49
2022/10/29 05:02:35;;;;;;;25.05;4.03;;;;;;;10.84;100.00;101894.22;5041322;28;20209;-47
2022/10/29 05:05:00;;;;;;;17.98;3.70;;;;;;;10.77;100.00;101897.97;5039376;28;20211;-48
2022/10/29 05:07:25;;;;;;;18.23;3.70;;;;;;;10.80;100.00;101888.97;5041701;28;20217;-47
2022/10/29 05:09:51;;;;;;;12.75;3.15;;;;;;;10.79;100.00;101901.50;5042305;28;20218;-48
2022/10/29 05:12:16;;;;;;;15.13;3.35;;;;;;;10.85;100.00;101901.38;5040573;28;20179;-46
2022/10/29 05:14:42;;;;;;;22.55;3.88;;;;;;;10.80;100.00;101907.72;5028394;28;20260;-46
2022/10/29 05:17:07;;;;;;;13.13;3.35;;;;;;;10.78;100.00;101914.94;5039406;28;20234;-47
2022/10/29 05:19:33;;;;;;;17.80;3.10;;;;;;;10.79;100.00;101925.63;5041058;28;20191;-46
2022/10/29 05:21:58;;;;;;;11.70;2.67;;;;;;;10.70;100.00;101923.16;5040347;28;20191;-46
2022/10/29 05:24:24;;;;;;;16.10;2.95;;;;;;;10.57;100.00;101927.00;5040369;28;20730;-46
2022/10/29 05:26:49;;;;;;;22.90;3.55;;;;;;;10.43;100.00;101930.84;5039473;28;20211;-48
2022/10/29 05:29:14;;;;;;;13.35;2.95;;;;;;;10.51;100.00;101928.00;5039355;28;20184;-46
2022/10/29 05:31:40;;;;;;;15.18;3.25;;;;;;;10.60;100.00;101934.97;5041567;28;20337;-47
2022/10/29 05:34:05;;;;;;;15.85;3.58;;;;;;;10.55;100.00;101940.41;5041120;28;20191;-47
2022/10/29 05:36:31;;;;;;;16.98;3.92;;;;;;;10.59;100.00;101933.22;5038551;28;20269;-48
2022/10/29 05:38:56;;;;;;;19.08;3.55;;;;;;;10.61;100.00;101940.31;5041611;28;20696;-48
2022/10/29 05:41:22;;;;;;;15.85;3.78;;;;;;;10.51;100.00;101928.00;5040023;28;20207;-47
2022/10/29 05:43:49;;;;;;;15.60;3.35;;;;;;;10.34;100.00;101914.94;5042281;28;20183;-46
2022/10/29 05:46:15;;;;;;;22.48;3.33;;;;;;;10.33;100.00;101906.94;5039143;28;20223;-47
2022/10/29 05:48:41;;;;;;;12.32;2.75;;;;;;;10.36;100.00;101906.88;5040760;28;20191;-48
2022/10/29 05:51:06;;;;;;;23.02;3.85;;;;;;;10.37;100.00;101908.66;5025935;28;20183;-48
2022/10/29 05:53:32;;;;;;;18.42;3.80;;;;;;;10.33;100.00;101897.09;5040659;28;20274;-46
2022/10/29 05:55:58;;;;;;;10.25;2.58;;;;;;;10.41;100.00;101896.97;5042752;28;20281;-47
2022/10/29 05:58:23;;;;;;;15.63;2.80;;;;;;;10.27;100.00;101899.88;5026640;28;20270;-47
2022/10/29 06:00:49;;;;;;;9.35;2.45;;;;;;;10.37;100.00;101904.16;5042630;28;20560;-49
2022/10/29 06:03:19;;;;;;;13.38;2.60;;;;;;;10.34;100.00;101908.69;5039961;28;20266;-49
2022/10/29 06:05:45;;;;;;;18.65;3.15;;;;;;;10.33;100.00;101912.31;5038363;28;20236;-49
2022/10/29 06:08:11;;;;;;;19.98;3.22;;;;;;;10.41;100.00;101915.72;5040403;28;20191;-46
2022/10/29 06:10:37;;;;;;;15.48;3.15;;;;;;;10.43;100.00;101909.41;5026461;28;20195;-46
2022/10/29 06:13:12;;;;;;;19.38;3.30;;;;;;;10.40;100.00;101903.22;5023941;28;20192;-46
2022/10/29 06:15:39;;;;;;;15.75;3.50;;;;;;;10.48;100.00;101901.28;5040193;28;20277;-48
2022/10/29 06:18:04;;;;;;;17.42;4.00;;;;;;;10.30;100.00;101908.78;5030376;28;20508;-46
2022/10/29 06:20:30;;;;;;;19.77;3.92;;;;;;;10.30;100.00;101908.78;5040039;28;20188;-47
2022/10/29 06:22:56;;;;;;;13.50;3.47;;;;;;;10.36;100.00;101909.56;5038507;28;20588;-48
2022/10/29 06:25:23;;;;;;;14.60;3.25;;;;;;;10.46;100.00;101916.50;5024245;28;20219;-48
2022/10/29 06:27:57;;;;;;;19.55;3.60;;;;;;;10.37;100.00;101908.66;5039791;28;20179;-48
2022/10/29 06:30:23;;;;;;;18.77;4.03;;;;;;;10.39;100.00;101914.88;5039617;28;20294;-48
2022/10/29 06:32:48;;;;;;;19.98;3.90;;;;;;;10.44;100.00;101908.47;5037898;28;20721;-46
2022/10/29 06:35:14;;;;;;;16.88;4.00;;;;;;;10.38;100.00;101910.41;5039287;28;20211;-49
2022/10/29 06:37:39;;;;;;;17.25;3.85;;;;;;;10.41;100.00;101926.44;5039107;28;20603;-49
2022/10/29 06:40:05;;;;;;;15.13;3.85;;;;;;;10.46;100.00;101929.91;5038989;28;20606;-48
2022/10/29 06:42:30;;;;;;;18.35;4.15;;;;;;;10.46;100.00;101936.13;5038959;28;20226;-48
2022/10/29 06:44:56;;;;;;;11.18;4.03;;;;;;;10.40;100.00;101938.91;5039613;28;20304;-47
2022/10/29 06:47:21;;;;;;;13.43;3.95;;;;;;;10.48;100.00;101936.09;5034847;28;20192;-45
2022/10/29 06:49:47;;;;;;;15.05;4.53;;;;;;;10.45;100.00;101937.06;5038228;28;20167;-45
2022/10/29 06:52:12;;;;;;;14.45;4.72;;;;;;;10.46;100.00;101937.94;5025588;28;20187;-46
2022/10/29 06:54:38;;;;;;;17.05;4.72;;;;;;;10.42;100.00;101930.88;5030572;28;20207;-46
2022/10/29 06:57:03;;;;;;;10.75;4.85;;;;;;;10.49;100.00;101927.13;5036796;28;20278;-44
2022/10/29 06:59:28;;;;;;;18.40;5.38;;;;;;;10.48;100.00;101933.44;5029370;28;20184;-46
2022/10/29 07:01:54;;;;;;;15.32;4.95;;;;;;;10.56;100.00;101925.22;5042977;28;20176;-45
2022/10/29 07:04:20;;;;;;;15.52;5.22;;;;;;;10.56;100.00;101918.09;5023692;28;20223;-44
2022/10/29 07:06:45;;;;;;;13.30;5.40;;;;;;;10.63;100.00;101946.50;5041094;28;20685;-45
2022/10/29 07:09:11;;;;;;;20.58;5.63;;;;;;;10.58;100.00;101940.34;5032958;28;20329;-44
2022/10/29 07:11:36;;;;;;;15.93;5.45;;;;;;;10.60;100.00;101927.81;5050001;28;20517;-45
2022/10/29 07:14:04;;;;;;;15.27;5.35;;;;;;;10.67;100.00;101936.59;5045671;28;20651;-44
2022/10/29 07:16:30;;;;;;;13.07;5.00;;;;;;;10.66;100.00;101940.19;5039604;28;20180;-46
2022/10/29 07:18:56;;;;;;;12.48;5.20;;;;;;;10.76;100.00;101933.75;5036951;28;20182;-46
2022/10/29 07:21:22;;;;;;;11.52;5.45;;;;;;;10.79;100.00;101940.84;5030643;28;20244;-46
2022/10/29 07:23:47;;;;;;;15.73;5.22;;;;;;;10.96;100.00;101941.34;5044371;28;20288;-46
2022/10/29 07:26:12;;;;;;;11.25;4.65;;;;;;;11.04;100.00;101959.94;5046356;28;20225;-46
2022/10/29 07:28:38;;;;;;;10.98;4.30;;;;;;;11.04;100.00;101963.53;5037682;28;20194;-43
2022/10/29 07:31:03;;;;;;;11.55;4.60;;;;;;;11.05;100.00;101954.56;5033953;28;20214;-45
2022/10/29 07:33:29;;;;;;;16.83;5.00;;;;;;;10.92;100.00;101945.88;5049391;28;20222;-45
2022/10/29 07:35:57;;;;;;;11.45;3.70;;;;;;;10.98;100.00;101950.25;5037338;28;20689;-45
2022/10/29 07:38:23;;;;;;;10.38;4.60;;;;;;;11.06;100.00;101952.75;5038646;28;20653;-43
2022/10/29 07:40:49;;;;;;;11.65;4.22;;;;;;;11.11;100.00;101950.88;5036316;28;20331;-45
2022/10/29 07:43:16;;;;;;;11.10;4.60;;;;;;;11.08;100.00;101962.50;5032065;28;20172;-43
2022/10/29 07:45:44;;;;;;;13.40;4.65;;;;;;;11.11;100.00;101954.41;5044882;28;20221;-47
2022/10/29 07:48:09;;;;;;;11.43;4.55;;;;;;;11.10;100.00;101946.41;5036449;28;20274;-45
2022/10/29 07:50:36;;;;;;;13.30;3.78;;;;;;;11.13;100.00;101947.22;5029485;28;20603;-44
2022/10/29 07:53:03;;;;;;;11.38;3.92;;;;;;;11.11;100.00;101950.88;5030014;28;20164;-46
2022/10/29 07:55:29;;;;;;;10.00;3.58;;;;;;;11.28;100.00;101943.31;5031987;28;20204;-45
2022/10/29 07:57:57;;;;;;;12.38;3.88;;;;;;;11.22;100.00;101942.56;5036304;28;20507;-45
2022/10/29 08:00:24;;;;;;;8.45;3.30;;;;;;;11.29;100.00;101946.88;5029438;28;20224;-45
2022/10/29 08:02:52;;;;;;;7.88;2.97;;;;;;;11.32;100.00;101941.41;5043507;28;20191;-45
2022/10/29 08:05:18;;;;;;;11.10;3.47;;;;;;;11.40;100.00;101936.75;5028331;28;20327;-47
2022/10/29 08:07:43;;;;;;;11.98;3.20;;;;;;;11.48;100.00;101945.53;5039762;28;20180;-47
2022/10/29 08:10:09;;;;;;;7.93;2.80;;;;;;;11.64;100.00;101950.50;5029949;28;20160;-46
2022/10/29 08:12:34;;;;;;;7.63;3.20;;;;;;;11.67;100.00;101961.16;5011550;28;20180;-44
2022/10/29 08:15:00;;;;;;;9.90;2.80;;;;;;;11.73;100.00;101961.88;5042811;28;20221;-44
2022/10/29 08:17:29;;;;;;;7.18;2.95;;;;;;;11.75;100.00;101959.19;5036047;28;20180;-47
2022/10/29 08:19:54;;;;;;;9.85;3.58;;;;;;;11.70;100.00;101967.34;5030140;28;20180;-45
2022/10/29 08:22:20;;;;;;;11.27;3.22;;;;;;;11.78;100.00;101975.19;5031546;28;20676;-45
2022/10/29 08:24:45;;;;;;;8.45;2.90;;;;;;;11.93;100.00;101974.84;5049054;28;20198;-46
2022/10/29 08:27:11;;;;;;;12.52;3.20;;;;;;;11.86;100.00;101951.72;5049564;28;20504;-45
2022/10/29 08:29:36;;;;;;;11.23;3.35;;;;;;;11.93;100.00;101957.84;5049528;28;20164;-45
2022/10/29 08:32:02;;;;;;;11.90;3.13;;;;;;;12.00;100.00;101950.53;5049060;28;20244;-45
2022/10/29 08:34:27;;;;;;;13.25;3.58;;;;;;;12.01;100.00;101945.13;5042133;28;20207;-47
2022/10/29 08:36:53;;;;;;;11.43;3.47;;;;;;;12.07;100.00;101958.38;5049302;28;20596;-46
2022/10/29 08:39:18;;;;;;;11.90;3.10;;;;;;;12.07;100.00;101952.09;5049302;28;20191;-48
2022/10/29 08:42:00;;;;;;;15.35;4.00;;;;;;;12.13;100.00;101954.63;5043009;28;20227;-48
2022/10/29 08:44:55;;;;;;;13.63;3.58;;;;;;;12.21;100.00;101954.44;5048929;28;20196;-47
2022/10/29 08:47:22;;;;;;;10.38;3.30;;;;;;;12.23;100.00;101949.91;5011357;28;20299;-46
2022/10/29 08:50:25;;;;;;;7.78;3.20;;;;;;;12.15;100.00;101947.44;5011810;28;20549;-48
2022/10/29 08:52:51;;;;;;;11.63;3.00;;;;;;;12.25;100.00;101948.06;5038641;28;20172;-47
2022/10/29 08:55:27;;;;;;;10.43;3.45;;;;;;;12.17;100.00;101956.31;5049226;28;20195;-46
2022/10/29 08:58:10;;;;;;;10.45;3.55;;;;;;;12.16;100.00;101941.16;5032477;28;20643;-48
2022/10/29 09:00:40;;;;;;;8.57;3.50;;;;;;;12.18;100.00;101944.69;5029157;28;20165;-47
2022/10/29 09:03:15;;;;;;;7.80;3.58;;;;;;;12.26;100.00;101942.63;5030079;28;20620;-47
2022/10/29 09:06:03;;;;;;;8.68;2.83;;;;;;;12.41;100.00;101952.09;5045436;28;20225;-47
2022/10/29 09:08:28;;;;;;;9.98;3.83;;;;;;;12.42;100.00;101951.19;5052322;28;20245;-45
2022/10/29 09:10:57;;;;;;;7.50;3.58;;;;;;;12.33;100.00;101951.41;5052591;28;20205;-47
2022/10/29 09:13:35;;;;;;;6.47;3.55;;;;;;;12.31;100.00;101947.88;5049976;28;20175;-46
2022/10/29 09:16:13;;;;;;;7.72;2.85;;;;;;;12.30;100.00;101949.69;5041691;28;20202;-46
2022/10/29 09:19:03;;;;;;;6.75;3.90;;;;;;;12.34;100.00;101945.13;5044376;28;20629;-47
2022/10/29 09:21:37;;;;;;;6.50;3.63;;;;;;;12.49;100.00;101947.38;5052697;28;20175;-44
2022/10/29 09:24:46;;;;;;;7.78;4.80;;;;;;;12.18;100.00;101952.72;5038245;28;20188;-45
2022/10/29 09:27:38;;;;;;;9.27;5.03;;;;;;;12.17;100.00;101959.00;4958965;28;20710;-47
2022/10/29 09:30:30;;;;;;;8.90;5.15;;;;;;;12.20;100.00;101956.25;4951431;29;20195;-45
2022/10/29 09:33:06;;;;;;;11.88;5.97;;;;;;;12.25;100.00;101945.38;5021775;28;20221;-45
2022/10/29 09:35:52;;;;;;;9.45;5.80;;;;;;;12.21;100.00;101947.25;5042770;28;20215;-45
2022/10/29 09:38:22;;;;;;;12.35;5.82;;;;;;;12.19;100.00;101945.53;5039102;28;20668;-46
2022/10/29 09:40:48;;;;;;;10.32;6.07;;;;;;;12.16;100.00;101939.34;5052426;28;20232;-44
2022/10/29 09:43:34;;;;;;;11.07;6.85;;;;;;;12.07;100.00;101920.78;5046212;28;20172;-44
2022/10/29 09:46:15;;;;;;;10.27;7.18;;;;;;;12.02;100.00;101916.44;5044794;28;20280;-44
2022/10/29 09:49:02;;;;;;;12.05;7.70;;;;;;;12.07;100.00;101909.13;5034753;28;20268;-46
2022/10/29 09:51:35;;;;;;;11.93;7.22;;;;;;;12.31;100.00;101910.25;5035453;28;20260;-44
2022/10/29 09:54:01;;;;;;;12.38;7.72;;;;;;;12.45;100.00;101923.31;5032074;28;20684;-44
2022/10/29 09:56:27;;;;;;;11.70;7.47;;;;;;;12.50;100.00;101924.94;5043741;28;20338;-44
2022/10/29 09:59:02;;;;;;;14.13;8.18;;;;;;;12.50;100.00;101929.44;5034982;28;20171;-46
2022/10/29 10:01:27;;;;;;;15.80;8.23;;;;;;;12.51;100.00;101921.34;5041501;28;20183;-47
2022/10/29 10:03:58;;;;;;;12.88;8.85;;;;;;;12.55;100.00;101923.03;5045094;28;20180;-46
2022/10/29 10:06:23;;;;;;;13.98;8.65;;;;;;;12.57;100.00;101894.28;5048357;28;20207;-46
2022/10/29 10:09:04;;;;;;;12.13;8.77;;;;;;;12.57;100.00;101891.59;5041398;28;20653;-47
2022/10/29 10:11:48;;;;;;;15.80;8.98;;;;;;;12.63;100.00;101886.97;5032149;28;20178;-48
2022/10/29 10:14:22;;;;;;;13.07;8.30;;;;;;;12.67;100.00;101897.56;5026284;28;20554;-47
2022/10/29 10:16:59;;;;;;;14.00;8.25;;;;;;;12.72;100.00;101900.13;5031915;28;20164;-47
2022/10/29 10:19:28;;;;;;;19.40;10.00;;;;;;;12.62;100.00;101888.78;5034002;28;20272;-46
2022/10/29 10:22:04;;;;;;;16.48;8.90;;;;;;;12.76;100.00;101880.28;5038335;28;20192;-45
2022/10/29 10:24:35;;;;;;;13.82;8.20;;;;;;;13.05;100.00;101884.75;5036447;28;20199;-48
2022/10/29 10:27:24;;;;;;;13.18;8.77;;;;;;;13.06;100.00;101885.66;5032727;28;20521;-46
2022/10/29 10:30:11;;;;;;;14.20;8.63;;;;;;;13.19;100.00;101882.50;5038200;28;20183;-46
2022/10/29 10:32:37;;;;;;;19.88;9.00;;;;;;;13.29;100.00;101890.31;5029945;28;20214;-46
2022/10/29 10:35:28;;;;;;;20.30;8.65;;;;;;;13.06;100.00;101878.44;5013811;28;20219;-46
2022/10/29 10:37:54;;;;;;;19.92;9.30;;;;;;;12.99;100.00;101887.66;5046835;28;20223;-46
2022/10/29 10:40:23;;;;;;;16.23;9.30;;;;;;;13.20;100.00;101889.63;5044317;28;20203;-47
2022/10/29 10:42:52;;;;;;;13.10;8.98;;;;;;;13.23;100.00;101899.44;5022189;28;20235;-47
2022/10/29 10:45:31;;;;;;;13.50;8.95;;;;;;;13.55;100.00;101902.91;5031052;28;20203;-45
2022/10/29 10:47:57;;;;;;;13.68;8.52;;;;;;;13.63;100.00;101895.47;5031434;28;20164;-46
2022/10/29 10:50:31;;;;;;;14.18;8.70;;;;;;;13.58;100.00;101889.34;5017126;28;20332;-47
2022/10/29 10:53:01;;;;;;;13.88;8.10;;;;;;;13.73;100.00;101898.72;5013483;28;20176;-47
2022/10/29 10:55:29;;;;;;;11.18;8.20;;;;;;;13.77;100.00;101889.59;5050018;28;20289;-45
2022/10/29 10:58:14;;;;;;;13.02;8.48;;;;;;;13.69;100.00;101881.78;5034597;28;20183;-45
2022/10/29 11:00:45;;;;;;;12.25;8.20;;;;;;;13.74;100.00;101873.56;5031037;28;20194;-46
2022/10/29 11:03:22;;;;;;;9.85;7.93;;;;;;;13.73;100.00;101874.47;5030899;28;20267;-44
2022/10/29 11:06:06;;;;;;;12.55;8.32;;;;;;;13.72;100.00;101875.41;5017376;28;20697;-48
2022/10/29 11:09:00;;;;;;;11.27;7.22;;;;;;;13.83;100.00;101886.69;5032538;28;20188;-44
2022/10/29 11:11:36;;;;;;;13.80;8.60;;;;;;;13.87;100.00;101876.69;5048586;28;20196;-46
2022/10/29 11:14:12;;;;;;;14.68;7.50;;;;;;;14.18;100.00;101865.69;5032916;28;20195;-46
2022/10/29 11:16:42;;;;;;;11.82;7.70;;;;;;;14.08;100.00;101862.47;5033004;28;20183;-47
2022/10/29 11:19:11;;;;;;;12.65;7.35;;;;;;;14.21;100.00;101865.56;5030632;28;20180;-44
2022/10/29 11:22:02;;;;;;;12.18;7.70;;;;;;;14.24;100.00;101865.47;5048392;28;20187;-45
2022/10/29 11:24:43;;;;;;;9.68;7.28;;;;;;;13.96;100.00;101852.13;5002213;28;20211;-46